Koge, Denmark
Current Conditions -  °F | °C
As of 2:20 AM on Friday 19 Dec 2014 (Local Time) from EKRK Reporting Station
Broken Clouds Broken Clouds  
Wind Chill: 50°   Ceiling: 2200
Heat Index: 50°   Visibility: 6mi
Dew Point: 46°   Wind: 23mph
Humidity: 87%   Direction: 260°W
Pressure: 29.41"   Gusts: NA
Location:  55.45°N, 12.18°E
Report Text: EKRK 190120Z AUTO 26020KT 9999NDV FEW015/// BKN022///BKN100/// 10/08 Q0996
Loading
Personal Weather Stations






























Interactive Weather Map New forecast layout! Learn more

10-Day Weather Forecast

Advertisements
Track Severe Weather on mobile